sensor_id;sensor_type;location;lat;lon;timestamp;pressure;altitude;pressure_sealevel;temperature;humidity
11525;BME280;5819;49.648;8.330;2023-04-09T00:01:19;101243.56;;;6.63;100.00
11525;BME280;5819;49.648;8.330;2023-04-09T00:03:47;101245.34;;;6.61;100.00
11525;BME280;5819;49.648;8.330;2023-04-09T00:06:15;101243.56;;;6.64;100.00
11525;BME280;5819;49.648;8.330;2023-04-09T00:08:43;101247.06;;;6.62;100.00
11525;BME280;5819;49.648;8.330;2023-04-09T00:11:11;101243.66;;;6.56;100.00
11525;BME280;5819;49.648;8.330;2023-04-09T00:13:38;101236.88;;;6.49;100.00
11525;BME280;5819;49.648;8.330;2023-04-09T00:16:08;101233.50;;;6.40;100.00
11525;BME280;5819;49.648;8.330;2023-04-09T00:18:35;101241.34;;;6.34;100.00
11525;BME280;5819;49.648;8.330;2023-04-09T00:21:03;101238.72;;;6.35;100.00
11525;BME280;5819;49.648;8.330;2023-04-09T00:23:33;101237.00;;;6.37;100.00
11525;BME280;5819;49.648;8.330;2023-04-09T00:26:01;101241.25;;;6.41;100.00
11525;BME280;5819;49.648;8.330;2023-04-09T00:28:28;101230.03;;;6.44;100.00
11525;BME280;5819;49.648;8.330;2023-04-09T00:30:56;101233.50;;;6.41;100.00
11525;BME280;5819;49.648;8.330;2023-04-09T00:33:26;101235.09;;;6.50;100.00
11525;BME280;5819;49.648;8.330;2023-04-09T00:35:54;101232.50;;;6.51;100.00
11525;BME280;5819;49.648;8.330;2023-04-09T00:38:22;101236.81;;;6.52;100.00
11525;BME280;5819;49.648;8.330;2023-04-09T00:40:50;101230.63;;;6.66;100.00
11525;BME280;5819;49.648;8.330;2023-04-09T00:43:18;101222.84;;;6.67;100.00
11525;BME280;5819;49.648;8.330;2023-04-09T00:45:46;101227.28;;;6.57;100.00
11525;BME280;5819;49.648;8.330;2023-04-09T00:48:15;101224.75;;;6.50;100.00
11525;BME280;5819;49.648;8.330;2023-04-09T00:50:45;101229.88;;;6.54;100.00
11525;BME280;5819;49.648;8.330;2023-04-09T00:53:13;101225.53;;;6.58;100.00
11525;BME280;5819;49.648;8.330;2023-04-09T00:55:42;101225.66;;;6.49;100.00
11525;BME280;5819;49.648;8.330;2023-04-09T00:58:10;101230.75;;;6.56;100.00
11525;BME280;5819;49.648;8.330;2023-04-09T01:00:38;101229.81;;;6.61;100.00
11525;BME280;5819;49.648;8.330;2023-04-09T01:03:06;101227.34;;;6.53;100.00
11525;BME280;5819;49.648;8.330;2023-04-09T01:05:39;101232.47;;;6.54;100.00
11525;BME280;5819;49.648;8.330;2023-04-09T01:08:18;101224.56;;;6.68;100.00
11525;BME280;5819;49.648;8.330;2023-04-09T01:10:54;101222.75;;;6.75;100.00
11525;BME280;5819;49.648;8.330;2023-04-09T01:13:29;101227.16;;;6.67;100.00
11525;BME280;5819;49.648;8.330;2023-04-09T01:16:02;101226.13;;;6.81;100.00
11525;BME280;5819;49.648;8.330;2023-04-09T01:18:35;101220.97;;;6.78;100.00
11525;BME280;5819;49.648;8.330;2023-04-09T01:21:11;101221.00;;;6.75;100.00
11525;BME280;5819;49.648;8.330;2023-04-09T01:23:46;101220.03;;;6.85;100.00
11525;BME280;5819;49.648;8.330;2023-04-09T01:26:25;101219.28;;;6.76;100.00
11525;BME280;5819;49.648;8.330;2023-04-09T01:28:58;101215.78;;;6.81;100.00
11525;BME280;5819;49.648;8.330;2023-04-09T01:31:29;101218.38;;;6.80;100.00
11525;BME280;5819;49.648;8.330;2023-04-09T01:33:59;101216.59;;;6.83;100.00
11525;BME280;5819;49.648;8.330;2023-04-09T01:36:29;101216.53;;;6.88;100.00
11525;BME280;5819;49.648;8.330;2023-04-09T01:38:59;101218.28;;;6.87;100.00
11525;BME280;5819;49.648;8.330;2023-04-09T01:41:30;101209.66;;;6.87;100.00
11525;BME280;5819;49.648;8.330;2023-04-09T01:44:02;101214.66;;;6.99;100.00
11525;BME280;5819;49.648;8.330;2023-04-09T01:46:30;101218.91;;;7.03;100.00
11525;BME280;5819;49.648;8.330;2023-04-09T01:49:01;101215.53;;;6.99;100.00
11525;BME280;5819;49.648;8.330;2023-04-09T01:51:29;101217.28;;;6.96;100.00
11525;BME280;5819;49.648;8.330;2023-04-09T01:53:59;101216.38;;;7.00;100.00
11525;BME280;5819;49.648;8.330;2023-04-09T01:56:27;101222.19;;;7.17;100.00
11525;BME280;5819;49.648;8.330;2023-04-09T01:58:55;101220.47;;;7.15;100.00
11525;BME280;5819;49.648;8.330;2023-04-09T02:01:32;101222.41;;;6.99;100.00
11525;BME280;5819;49.648;8.330;2023-04-09T02:04:04;101223.38;;;6.90;100.00
11525;BME280;5819;49.648;8.330;2023-04-09T02:06:39;101222.41;;;6.99;100.00
11525;BME280;5819;49.648;8.330;2023-04-09T02:09:11;101221.38;;;7.12;100.00
11525;BME280;5819;49.648;8.330;2023-04-09T02:11:41;101223.16;;;7.09;100.00
11525;BME280;5819;49.648;8.330;2023-04-09T02:14:10;101227.41;;;7.11;100.00
11525;BME280;5819;49.648;8.330;2023-04-09T02:16:40;101218.09;;;7.01;100.00
11525;BME280;5819;49.648;8.330;2023-04-09T02:19:09;101220.69;;;7.01;100.00
11525;BME280;5819;49.648;8.330;2023-04-09T02:21:38;101224.03;;;7.07;100.00
11525;BME280;5819;49.648;8.330;2023-04-09T02:24:06;101216.25;;;7.07;100.00
11525;BME280;5819;49.648;8.330;2023-04-09T02:26:35;101217.19;;;7.05;100.00
11525;BME280;5819;49.648;8.330;2023-04-09T02:29:03;101218.91;;;7.03;100.00
11525;BME280;5819;49.648;8.330;2023-04-09T02:31:31;101225.09;;;6.93;100.00
11525;BME280;5819;49.648;8.330;2023-04-09T02:34:00;101222.34;;;7.05;100.00
11525;BME280;5819;49.648;8.330;2023-04-09T02:36:28;101215.56;;;6.95;100.00
11525;BME280;5819;49.648;8.330;2023-04-09T02:38:56;101226.72;;;6.98;100.00
11525;BME280;5819;49.648;8.330;2023-04-09T02:41:24;101215.63;;;6.93;100.00
11525;BME280;5819;49.648;8.330;2023-04-09T02:43:51;101218.97;;;6.98;100.00
11525;BME280;5819;49.648;8.330;2023-04-09T02:46:19;101212.22;;;6.90;100.00
11525;BME280;5819;49.648;8.330;2023-04-09T02:48:47;101219.88;;;6.97;100.00
11525;BME280;5819;49.648;8.330;2023-04-09T02:51:17;101216.22;;;7.11;100.00
11525;BME280;5819;49.648;8.330;2023-04-09T02:53:45;101221.56;;;7.00;100.00
11525;BME280;5819;49.648;8.330;2023-04-09T02:56:13;101219.81;;;7.00;100.00
11525;BME280;5819;49.648;8.330;2023-04-09T02:58:41;101217.22;;;7.02;100.00
11525;BME280;5819;49.648;8.330;2023-04-09T03:01:09;101220.63;;;7.04;100.00
11525;BME280;5819;49.648;8.330;2023-04-09T03:03:37;101215.47;;;7.02;100.00
11525;BME280;5819;49.648;8.330;2023-04-09T03:06:07;101213.78;;;7.00;100.00
11525;BME280;5819;49.648;8.330;2023-04-09T03:08:37;101208.63;;;7.00;100.00
11525;BME280;5819;49.648;8.330;2023-04-09T03:11:05;101214.63;;;7.02;100.00
11525;BME280;5819;49.648;8.330;2023-04-09T03:13:33;101208.59;;;7.01;100.00
11525;BME280;5819;49.648;8.330;2023-04-09T03:16:02;101207.47;;;7.21;100.00
11525;BME280;5819;49.648;8.330;2023-04-09T03:18:29;101211.16;;;7.03;100.00
11525;BME280;5819;49.648;8.330;2023-04-09T03:20:57;101200.91;;;6.95;100.00
11525;BME280;5819;49.648;8.330;2023-04-09T03:23:27;101202.66;;;6.95;100.00
11525;BME280;5819;49.648;8.330;2023-04-09T03:26:02;101205.06;;;7.09;100.00
11525;BME280;5819;49.648;8.330;2023-04-09T03:28:38;101200.09;;;6.93;100.00
11525;BME280;5819;49.648;8.330;2023-04-09T03:31:06;101198.59;;;6.76;100.00
11525;BME280;5819;49.648;8.330;2023-04-09T03:33:36;101203.06;;;6.65;100.00
11525;BME280;5819;49.648;8.330;2023-04-09T03:36:04;101210.06;;;6.55;100.00
11525;BME280;5819;49.648;8.330;2023-04-09T03:38:55;101205.84;;;6.46;100.00
11525;BME280;5819;49.648;8.330;2023-04-09T03:41:34;101205.94;;;6.39;100.00
11525;BME280;5819;49.648;8.330;2023-04-09T03:44:05;101203.41;;;6.36;100.00
11525;BME280;5819;49.648;8.330;2023-04-09T03:47:07;101204.41;;;6.26;100.00
11525;BME280;5819;49.648;8.330;2023-04-09T03:49:37;101207.91;;;6.19;100.00
11525;BME280;5819;49.648;8.330;2023-04-09T03:52:14;101200.25;;;6.11;100.00
11525;BME280;5819;49.648;8.330;2023-04-09T03:54:46;101206.25;;;6.10;100.00
11525;BME280;5819;49.648;8.330;2023-04-09T03:57:20;101213.22;;;6.03;100.00
11525;BME280;5819;49.648;8.330;2023-04-09T03:59:51;101211.50;;;6.02;100.00
11525;BME280;5819;49.648;8.330;2023-04-09T04:02:21;101216.75;;;5.96;100.00
11525;BME280;5819;49.648;8.330;2023-04-09T04:04:58;101217.69;;;5.86;100.00
11525;BME280;5819;49.648;8.330;2023-04-09T04:07:31;101210.00;;;5.80;100.00
11525;BME280;5819;49.648;8.330;2023-04-09T04:10:07;101210.00;;;5.80;100.00
11525;BME280;5819;49.648;8.330;2023-04-09T04:12:36;101212.56;;;5.79;100.00
11525;BME280;5819;49.648;8.330;2023-04-09T04:15:20;101211.78;;;5.71;100.00
11525;BME280;5819;49.648;8.330;2023-04-09T04:17:53;101212.69;;;5.70;100.00
11525;BME280;5819;49.648;8.330;2023-04-09T04:20:35;101218.72;;;5.62;100.00
11525;BME280;5819;49.648;8.330;2023-04-09T04:23:08;101224.78;;;5.58;100.00
11525;BME280;5819;49.648;8.330;2023-04-09T04:25:43;101218.84;;;5.53;100.00
11525;BME280;5819;49.648;8.330;2023-04-09T04:28:16;101223.97;;;5.55;100.00
11525;BME280;5819;49.648;8.330;2023-04-09T04:30:45;101221.38;;;5.55;100.00
11525;BME280;5819;49.648;8.330;2023-04-09T04:33:13;101219.69;;;5.51;100.00
11525;BME280;5819;49.648;8.330;2023-04-09T04:35:47;101221.41;;;5.52;100.00
11525;BME280;5819;49.648;8.330;2023-04-09T04:38:31;101231.75;;;5.49;100.00
11525;BME280;5819;49.648;8.330;2023-04-09T04:41:03;101220.53;;;5.54;100.00
11525;BME280;5819;49.648;8.330;2023-04-09T04:43:36;101228.25;;;5.56;100.00
11525;BME280;5819;49.648;8.330;2023-04-09T04:46:04;101229.16;;;5.53;100.00
11525;BME280;5819;49.648;8.330;2023-04-09T04:48:33;101225.72;;;5.51;100.00
11525;BME280;5819;49.648;8.330;2023-04-09T04:51:01;101228.31;;;5.48;100.00
11525;BME280;5819;49.648;8.330;2023-04-09T04:53:39;101228.34;;;5.44;100.00
11525;BME280;5819;49.648;8.330;2023-04-09T04:56:12;101232.56;;;5.55;100.00
11525;BME280;5819;49.648;8.330;2023-04-09T04:58:50;101230.00;;;5.52;100.00
11525;BME280;5819;49.648;8.330;2023-04-09T05:01:20;101236.06;;;5.48;100.00
11525;BME280;5819;49.648;8.330;2023-04-09T05:03:52;101231.81;;;5.38;100.00
11525;BME280;5819;49.648;8.330;2023-04-09T05:06:27;101232.72;;;5.36;100.00
11525;BME280;5819;49.648;8.330;2023-04-09T05:08:56;101227.50;;;5.43;100.00
11525;BME280;5819;49.648;8.330;2023-04-09T05:11:27;101228.31;;;5.48;100.00
11525;BME280;5819;49.648;8.330;2023-04-09T05:13:56;101240.38;;;5.46;100.00
11525;BME280;5819;49.648;8.330;2023-04-09T05:16:24;101246.34;;;5.53;100.00
11525;BME280;5819;49.648;8.330;2023-04-09T05:19:00;101243.78;;;5.50;100.00
11525;BME280;5819;49.648;8.330;2023-04-09T05:21:29;101241.06;;;5.70;100.00
11525;BME280;5819;49.648;8.330;2023-04-09T05:23:59;101243.59;;;5.76;100.00
11525;BME280;5819;49.648;8.330;2023-04-09T05:26:30;101241.84;;;5.78;100.00
11525;BME280;5819;49.648;8.330;2023-04-09T05:28:59;101238.38;;;5.79;100.00
11525;BME280;5819;49.648;8.330;2023-04-09T05:31:27;101239.22;;;5.85;100.00
11525;BME280;5819;49.648;8.330;2023-04-09T05:34:03;101238.28;;;5.94;100.00
11525;BME280;5819;49.648;8.330;2023-04-09T05:36:44;101245.13;;;5.99;100.00
11525;BME280;5819;49.648;8.330;2023-04-09T05:39:15;101233.84;;;6.09;100.00
11525;BME280;5819;49.648;8.330;2023-04-09T05:41:44;101244.16;;;6.13;100.00
11525;BME280;5819;49.648;8.330;2023-04-09T05:44:36;101242.22;;;6.31;100.00
11525;BME280;5819;49.648;8.330;2023-04-09T05:47:09;101247.25;;;6.43;100.00
11525;BME280;5819;49.648;8.330;2023-04-09T05:49:43;101244.69;;;6.42;100.00
11525;BME280;5819;49.648;8.330;2023-04-09T05:52:14;101241.25;;;6.40;100.00
11525;BME280;5819;49.648;8.330;2023-04-09T05:54:42;101235.28;;;6.36;100.00
11525;BME280;5819;49.648;8.330;2023-04-09T05:57:14;101233.47;;;6.43;100.00
11525;BME280;5819;49.648;8.330;2023-04-09T05:59:48;101234.28;;;6.46;100.00
11525;BME280;5819;49.648;8.330;2023-04-09T06:02:16;101233.31;;;6.55;100.00
11525;BME280;5819;49.648;8.330;2023-04-09T06:04:44;101230.88;;;6.46;100.00
11525;BME280;5819;49.648;8.330;2023-04-09T06:07:13;101241.34;;;6.32;100.00
11525;BME280;5819;49.648;8.330;2023-04-09T06:09:41;101236.09;;;6.40;100.00
11525;BME280;5819;49.648;8.330;2023-04-09T06:12:09;101253.50;;;6.24;100.00
11525;BME280;5819;49.648;8.330;2023-04-09T06:14:37;101248.38;;;6.20;100.00
11525;BME280;5819;49.648;8.330;2023-04-09T06:17:06;101251.81;;;6.20;100.00
11525;BME280;5819;49.648;8.330;2023-04-09T06:19:34;101260.25;;;6.34;100.00
11525;BME280;5819;49.648;8.330;2023-04-09T06:22:02;101261.13;;;6.38;100.00
11525;BME280;5819;49.648;8.330;2023-04-09T06:24:30;101248.13;;;6.42;100.00
11525;BME280;5819;49.648;8.330;2023-04-09T06:26:58;101261.81;;;6.52;100.00
11525;BME280;5819;49.648;8.330;2023-04-09T06:29:26;101247.88;;;6.62;100.00
11525;BME280;5819;49.648;8.330;2023-04-09T06:31:55;101254.72;;;6.66;100.00
11525;BME280;5819;49.648;8.330;2023-04-09T06:34:25;101258.06;;;6.76;100.00
11525;BME280;5819;49.648;8.330;2023-04-09T06:36:53;101256.41;;;6.72;100.00
11525;BME280;5819;49.648;8.330;2023-04-09T06:39:21;101252.69;;;6.94;100.00
11525;BME280;5819;49.648;8.330;2023-04-09T06:41:49;101260.34;;;6.98;100.00
11525;BME280;5819;49.648;8.330;2023-04-09T06:44:25;101257.78;;;6.98;100.00
11525;BME280;5819;49.648;8.330;2023-04-09T06:46:53;101265.53;;;6.98;100.00
11525;BME280;5819;49.648;8.330;2023-04-09T06:49:20;101266.28;;;7.06;100.00
11525;BME280;5819;49.648;8.330;2023-04-09T06:51:50;101273.19;;;7.07;100.00
11525;BME280;5819;49.648;8.330;2023-04-09T06:54:19;101270.47;;;7.15;100.00
11525;BME280;5819;49.648;8.330;2023-04-09T06:56:47;101274.03;;;7.08;100.00
11525;BME280;5819;49.648;8.330;2023-04-09T06:59:16;101273.19;;;7.07;100.00
11525;BME280;5819;49.648;8.330;2023-04-09T07:01:45;101265.47;;;7.06;100.00
11525;BME280;5819;49.648;8.330;2023-04-09T07:04:14;101258.34;;;7.19;100.00
11525;BME280;5819;49.648;8.330;2023-04-09T07:06:42;101256.88;;;7.59;100.00
11525;BME280;5819;49.648;8.330;2023-04-09T07:09:11;101258.47;;;7.68;100.00
11525;BME280;5819;49.648;8.330;2023-04-09T07:11:39;101252.75;;;7.99;100.00
11525;BME280;5819;49.648;8.330;2023-04-09T07:14:07;101253.78;;;7.91;100.00
11525;BME280;5819;49.648;8.330;2023-04-09T07:16:35;101251.25;;;7.88;100.00
11525;BME280;5819;49.648;8.330;2023-04-09T07:19:03;101252.25;;;7.79;100.00
11525;BME280;5819;49.648;8.330;2023-04-09T07:21:33;101253.91;;;7.83;100.00
11525;BME280;5819;49.648;8.330;2023-04-09T07:24:01;101255.34;;;8.01;100.00
11525;BME280;5819;49.648;8.330;2023-04-09T07:26:30;101251.38;;;8.28;100.00
11525;BME280;5819;49.648;8.330;2023-04-09T07:28:58;101248.66;;;8.37;100.00
11525;BME280;5819;49.648;8.330;2023-04-09T07:31:27;101248.72;;;8.77;100.00
11525;BME280;5819;49.648;8.330;2023-04-09T07:33:54;101256.13;;;8.95;100.00
11525;BME280;5819;49.648;8.330;2023-04-09T07:36:22;101242.41;;;9.65;96.84
11525;BME280;5819;49.648;8.330;2023-04-09T07:38:53;101244.53;;;9.83;93.97
11525;BME280;5819;49.648;8.330;2023-04-09T07:41:21;101237.72;;;10.46;90.52
11525;BME280;5819;49.648;8.330;2023-04-09T07:43:51;101240.81;;;10.89;89.76
11525;BME280;5819;49.648;8.330;2023-04-09T07:46:18;101236.94;;;11.58;84.79
11525;BME280;5819;49.648;8.330;2023-04-09T07:48:47;101232.41;;;11.91;83.75
11525;BME280;5819;49.648;8.330;2023-04-09T07:51:16;101232.16;;;11.44;84.54
11525;BME280;5819;49.648;8.330;2023-04-09T07:53:44;101238.69;;;11.31;84.73
11525;BME280;5819;49.648;8.330;2023-04-09T07:56:12;101238.28;;;11.69;83.51
11525;BME280;5819;49.648;8.330;2023-04-09T07:58:40;101233.41;;;11.87;80.75
11525;BME280;5819;49.648;8.330;2023-04-09T08:01:09;101243.91;;;11.30;82.93
11525;BME280;5819;49.648;8.330;2023-04-09T08:03:37;101239.03;;;11.75;80.57
11525;BME280;5819;49.648;8.330;2023-04-09T08:06:06;101237.38;;;11.98;79.30
11525;BME280;5819;49.648;8.330;2023-04-09T08:08:34;101238.16;;;12.25;77.56
11525;BME280;5819;49.648;8.330;2023-04-09T08:11:02;101248.34;;;11.82;80.01
11525;BME280;5819;49.648;8.330;2023-04-09T08:13:31;101244.28;;;11.99;81.00
11525;BME280;5819;49.648;8.330;2023-04-09T08:15:59;101249.13;;;11.84;80.23
11525;BME280;5819;49.648;8.330;2023-04-09T08:18:28;101251.81;;;11.54;82.46
11525;BME280;5819;49.648;8.330;2023-04-09T08:20:56;101257.41;;;10.85;82.65
11525;BME280;5819;49.648;8.330;2023-04-09T08:23:24;101244.16;;;10.94;82.86
11525;BME280;5819;49.648;8.330;2023-04-09T08:25:52;101246.66;;;11.25;82.08
11525;BME280;5819;49.648;8.330;2023-04-09T08:28:20;101243.31;;;11.21;81.85
11525;BME280;5819;49.648;8.330;2023-04-09T08:30:48;101251.09;;;11.49;80.52
11525;BME280;5819;49.648;8.330;2023-04-09T08:33:16;101249.06;;;11.87;80.62
11525;BME280;5819;49.648;8.330;2023-04-09T08:35:45;101246.03;;;11.99;80.23
11525;BME280;5819;49.648;8.330;2023-04-09T08:38:13;101250.50;;;12.20;77.83
11525;BME280;5819;49.648;8.330;2023-04-09T08:40:41;101245.09;;;12.00;77.04
11525;BME280;5819;49.648;8.330;2023-04-09T08:43:14;101252.81;;;11.78;78.28
11525;BME280;5819;49.648;8.330;2023-04-09T08:45:43;101248.75;;;12.20;78.98
11525;BME280;5819;49.648;8.330;2023-04-09T08:48:12;101250.84;;;11.85;75.59
11525;BME280;5819;49.648;8.330;2023-04-09T08:50:40;101247.63;;;12.03;77.83
11525;BME280;5819;49.648;8.330;2023-04-09T08:53:10;101237.53;;;12.66;77.29
11525;BME280;5819;49.648;8.330;2023-04-09T08:55:38;101244.09;;;12.04;74.76
11525;BME280;5819;49.648;8.330;2023-04-09T08:58:06;101253.22;;;11.38;76.44
11525;BME280;5819;49.648;8.330;2023-04-09T09:00:36;101255.88;;;11.07;77.15
11525;BME280;5819;49.648;8.330;2023-04-09T09:03:05;101250.63;;;11.64;79.81
11525;BME280;5819;49.648;8.330;2023-04-09T09:05:35;101250.41;;;11.98;77.22
11525;BME280;5819;49.648;8.330;2023-04-09T09:08:03;101252.84;;;12.03;77.07
11525;BME280;5819;49.648;8.330;2023-04-09T09:10:37;101254.53;;;11.79;73.11
11525;BME280;5819;49.648;8.330;2023-04-09T09:13:16;101260.81;;;11.98;76.33
11525;BME280;5819;49.648;8.330;2023-04-09T09:15:45;101264.06;;;12.05;77.90
11525;BME280;5819;49.648;8.330;2023-04-09T09:18:16;101254.81;;;12.21;74.93
11525;BME280;5819;49.648;8.330;2023-04-09T09:20:44;101252.31;;;12.18;76.12
11525;BME280;5819;49.648;8.330;2023-04-09T09:23:13;101251.94;;;12.29;75.58
11525;BME280;5819;49.648;8.330;2023-04-09T09:25:42;101255.53;;;12.26;73.78
11525;BME280;5819;49.648;8.330;2023-04-09T09:28:11;101259.03;;;12.25;75.43
11525;BME280;5819;49.648;8.330;2023-04-09T09:30:39;101252.38;;;12.16;75.37
11525;BME280;5819;49.648;8.330;2023-04-09T09:33:09;101247.97;;;12.18;76.94
11525;BME280;5819;49.648;8.330;2023-04-09T09:35:47;101250.44;;;11.97;78.83
11525;BME280;5819;49.648;8.330;2023-04-09T09:38:16;101251.47;;;12.17;78.75
11525;BME280;5819;49.648;8.330;2023-04-09T09:40:46;101243.84;;;12.36;73.85
11525;BME280;5819;49.648;8.330;2023-04-09T09:43:14;101253.09;;;12.45;71.39
11525;BME280;5819;49.648;8.330;2023-04-09T09:45:42;101239.06;;;12.95;72.13
11525;BME280;5819;49.648;8.330;2023-04-09T09:48:11;101230.00;;;13.04;68.93
11525;BME280;5819;49.648;8.330;2023-04-09T09:50:41;101231.09;;;13.22;68.21
11525;BME280;5819;49.648;8.330;2023-04-09T09:53:10;101228.84;;;13.34;68.83
11525;BME280;5819;49.648;8.330;2023-04-09T09:55:40;101226.97;;;13.59;68.58
11525;BME280;5819;49.648;8.330;2023-04-09T09:58:16;101215.84;;;13.54;67.97
11525;BME280;5819;49.648;8.330;2023-04-09T10:00:47;101222.00;;;13.32;69.44
11525;BME280;5819;49.648;8.330;2023-04-09T10:03:20;101221.38;;;13.25;67.76
11525;BME280;5819;49.648;8.330;2023-04-09T10:05:50;101218.34;;;13.14;67.07
11525;BME280;5819;49.648;8.330;2023-04-09T10:08:20;101221.09;;;13.09;68.46
11525;BME280;5819;49.648;8.330;2023-04-09T10:10:49;101222.09;;;13.29;67.64
11525;BME280;5819;49.648;8.330;2023-04-09T10:13:23;101207.00;;;13.57;67.57
11525;BME280;5819;49.648;8.330;2023-04-09T10:15:52;101204.56;;;13.94;65.54
11525;BME280;5819;49.648;8.330;2023-04-09T10:18:21;101203.13;;;13.87;65.29
11525;BME280;5819;49.648;8.330;2023-04-09T10:20:55;101204.03;;;13.66;63.79
11525;BME280;5819;49.648;8.330;2023-04-09T10:23:37;101207.09;;;13.55;65.14
11525;BME280;5819;49.648;8.330;2023-04-09T10:26:05;101200.38;;;13.90;65.28
11525;BME280;5819;49.648;8.330;2023-04-09T10:28:37;101187.59;;;14.43;63.79
11525;BME280;5819;49.648;8.330;2023-04-09T10:31:05;101177.41;;;14.93;63.95
11525;BME280;5819;49.648;8.330;2023-04-09T10:33:35;101182.16;;;15.04;64.30
11525;BME280;5819;49.648;8.330;2023-04-09T10:36:08;101186.97;;;14.57;64.70
11525;BME280;5819;49.648;8.330;2023-04-09T10:38:38;101187.53;;;14.04;61.19
11525;BME280;5819;49.648;8.330;2023-04-09T10:41:14;101191.63;;;13.91;59.88
11525;BME280;5819;49.648;8.330;2023-04-09T10:43:46;101196.47;;;13.38;64.34
11525;BME280;5819;49.648;8.330;2023-04-09T10:46:27;101196.53;;;13.15;68.75
11525;BME280;5819;49.648;8.330;2023-04-09T10:49:09;101192.16;;;13.16;66.56
11525;BME280;5819;49.648;8.330;2023-04-09T10:51:38;101196.47;;;12.93;67.16
11525;BME280;5819;49.648;8.330;2023-04-09T10:54:39;101199.25;;;12.89;69.56
11525;BME280;5819;49.648;8.330;2023-04-09T10:57:16;101194.09;;;13.10;71.24
11525;BME280;5819;49.648;8.330;2023-04-09T10:59:48;101201.44;;;13.23;68.54
11525;BME280;5819;49.648;8.330;2023-04-09T11:05:21;101192.72;;;13.24;71.76
11525;BME280;5819;49.648;8.330;2023-04-09T11:07:55;101180.94;;;13.55;69.63
11525;BME280;5819;49.648;8.330;2023-04-09T11:10:24;101180.56;;;13.85;68.26
11525;BME280;5819;49.648;8.330;2023-04-09T11:12:55;101167.00;;;14.73;65.77
11525;BME280;5819;49.648;8.330;2023-04-09T11:15:24;101167.78;;;14.57;61.33
11525;BME280;5819;49.648;8.330;2023-04-09T11:17:52;101173.81;;;14.40;61.85
11525;BME280;5819;49.648;8.330;2023-04-09T11:20:22;101170.88;;;14.07;61.61
11525;BME280;5819;49.648;8.330;2023-04-09T11:22:53;101164.09;;;14.42;59.48
11525;BME280;5819;49.648;8.330;2023-04-09T11:25:23;101160.94;;;14.91;62.54
11525;BME280;5819;49.648;8.330;2023-04-09T11:27:52;101167.88;;;14.74;61.96
11525;BME280;5819;49.648;8.330;2023-04-09T11:30:21;101154.72;;;15.11;60.29
11525;BME280;5819;49.648;8.330;2023-04-09T11:32:50;101142.94;;;15.56;59.15
11525;BME280;5819;49.648;8.330;2023-04-09T11:35:20;101146.31;;;15.58;56.11
11525;BME280;5819;49.648;8.330;2023-04-09T11:37:49;101149.63;;;15.44;56.17
11525;BME280;5819;49.648;8.330;2023-04-09T11:40:19;101136.75;;;15.57;60.38
11525;BME280;5819;49.648;8.330;2023-04-09T11:42:51;101145.00;;;15.13;61.00
11525;BME280;5819;49.648;8.330;2023-04-09T11:45:21;101149.28;;;15.16;63.11
11525;BME280;5819;49.648;8.330;2023-04-09T11:47:51;101148.38;;;15.34;62.16
11525;BME280;5819;49.648;8.330;2023-04-09T11:50:21;101138.47;;;16.41;57.60
11525;BME280;5819;49.648;8.330;2023-04-09T11:52:49;101137.75;;;16.70;57.93
11525;BME280;5819;49.648;8.330;2023-04-09T11:55:22;101151.78;;;15.53;61.50
11525;BME280;5819;49.648;8.330;2023-04-09T11:57:52;101155.16;;;15.02;60.58
11525;BME280;5819;49.648;8.330;2023-04-09T12:00:21;101155.63;;;14.74;61.90
11525;BME280;5819;49.648;8.330;2023-04-09T12:02:58;101159.38;;;14.11;61.76
11525;BME280;5819;49.648;8.330;2023-04-09T12:05:30;101159.25;;;13.94;64.11
11525;BME280;5819;49.648;8.330;2023-04-09T12:07:59;101163.44;;;13.78;60.63
11525;BME280;5819;49.648;8.330;2023-04-09T12:10:29;101161.16;;;13.70;63.86
11525;BME280;5819;49.648;8.330;2023-04-09T12:13:00;101160.56;;;13.84;62.71
11525;BME280;5819;49.648;8.330;2023-04-09T12:15:31;101153.34;;;14.09;64.71
11525;BME280;5819;49.648;8.330;2023-04-09T12:18:01;101162.56;;;13.77;65.12
11525;BME280;5819;49.648;8.330;2023-04-09T12:20:34;101161.84;;;13.74;65.02
11525;BME280;5819;49.648;8.330;2023-04-09T12:23:03;101161.41;;;13.44;64.50
11525;BME280;5819;49.648;8.330;2023-04-09T12:25:34;101161.97;;;13.50;66.16
11525;BME280;5819;49.648;8.330;2023-04-09T12:28:03;101150.41;;;13.36;66.44
11525;BME280;5819;49.648;8.330;2023-04-09T12:30:33;101158.78;;;13.64;65.41
11525;BME280;5819;49.648;8.330;2023-04-09T12:33:03;101144.88;;;13.84;63.78
11525;BME280;5819;49.648;8.330;2023-04-09T12:35:34;101155.78;;;13.93;63.52
11525;BME280;5819;49.648;8.330;2023-04-09T12:38:04;101132.13;;;14.35;62.91
11525;BME280;5819;49.648;8.330;2023-04-09T12:40:33;101128.00;;;14.48;61.82
11525;BME280;5819;49.648;8.330;2023-04-09T12:43:02;101130.50;;;14.51;60.15
11525;BME280;5819;49.648;8.330;2023-04-09T12:45:31;101130.66;;;14.67;59.64
11525;BME280;5819;49.648;8.330;2023-04-09T12:48:00;101121.25;;;14.63;59.45
11525;BME280;5819;49.648;8.330;2023-04-09T12:50:30;101122.59;;;14.72;61.71
11525;BME280;5819;49.648;8.330;2023-04-09T12:52:59;101116.22;;;14.59;55.89
11525;BME280;5819;49.648;8.330;2023-04-09T12:55:28;101114.63;;;14.92;54.80
11525;BME280;5819;49.648;8.330;2023-04-09T12:57:57;101113.63;;;14.94;56.11
11525;BME280;5819;49.648;8.330;2023-04-09T13:00:24;101113.66;;;15.12;54.34
11525;BME280;5819;49.648;8.330;2023-04-09T13:02:56;101111.16;;;14.91;54.05
11525;BME280;5819;49.648;8.330;2023-04-09T13:05:25;101107.72;;;14.72;54.18
11525;BME280;5819;49.648;8.330;2023-04-09T13:07:55;101105.91;;;14.73;57.09
11525;BME280;5819;49.648;8.330;2023-04-09T13:10:24;101108.19;;;14.62;54.37
11525;BME280;5819;49.648;8.330;2023-04-09T13:12:53;101106.94;;;14.70;55.72
11525;BME280;5819;49.648;8.330;2023-04-09T13:15:21;101102.81;;;14.83;54.86
11525;BME280;5819;49.648;8.330;2023-04-09T13:17:50;101097.78;;;15.15;53.48
11525;BME280;5819;49.648;8.330;2023-04-09T13:20:18;101098.63;;;14.79;53.27